Details for Jet2 at EGNX




Go Back


Latest METAR
Local Time

EGNX 221750Z 03010KT 290V070 9999 FEW040 17/10 Q1020

22/05/2018, 18:55:42

Description
Results
Jet2 Logo
Number of Pilots based at EGNX
1 Pilots Based here
Number of Jet2 Flights Departed from EGNX
0 Flights Departed
Number of Jet2 Flights Arrived at EGNX
0 Flights Arrived
Number of Jet2 Schedules Departing from EGNX
26 Schedules
Number of Jet2 Schedules Arriving at EGNX
25 Schedules
Number of Jet2 Schedules Departing from EGNX availible today
6 Schedules Today
Number of Jet2 Schedules Arriving at EGNX availible today
6 Schedules Today
Average Landing Rate at EGNX
-225 fpm
Jet2 Average Landing Rate at EGNX
0 fpm
Total Fuel Purchased at EGNX by Jet2
0.00 kgs / 0.00 lbs

Pilots Based at EGNX


Pilot ID
Pilot Name
Pilot Rank
No. of Flights
No. of Flying Hours
Guy Hall
255
349.15
Content